Time;durP1;ratioP1;P1;durP2;ratioP2;P2;SDS_P1;SDS_P2;PMS_P1;PMS_P2;Temp;Humidity;BMP_temperature;BMP_pressure;BME280_temperature;BME280_humidity;BME280_pressure;Samples;Min_cycle;Max_cycle;Signal;HPM_P1;HPM_P2
2022/03/15 00:01:19;;;;;;;1.55;1.00;;;;;;;20.83;29.40;102719.28;4214891;28;20097;-72
2022/03/15 00:03:22;;;;;;;1.40;0.95;;;;;;;20.84;29.43;102715.41;4216635;28;20040;-71
2022/03/15 00:05:24;;;;;;;2.65;0.90;;;;;;;20.78;29.51;102706.06;4216856;28;20414;-72
2022/03/15 00:07:28;;;;;;;1.77;0.90;;;;;;;20.83;29.71;102719.28;4215114;28;20090;-72
2022/03/15 00:09:29;;;;;;;1.30;0.90;;;;;;;20.85;29.76;102719.88;4216548;28;20453;-71
2022/03/15 00:11:34;;;;;;;0.80;0.70;;;;;;;20.84;29.94;102723.75;4197263;28;20435;-72
2022/03/15 00:13:38;;;;;;;1.42;0.90;;;;;;;20.81;29.62;102723.16;4215366;28;20044;-71
2022/03/15 00:15:41;;;;;;;1.50;0.90;;;;;;;20.84;29.57;102737.66;4214881;28;20036;-71
2022/03/15 00:17:44;;;;;;;0.73;0.73;;;;;;;20.77;29.91;102721.91;4215267;28;20414;-71
2022/03/15 00:19:46;;;;;;;1.55;0.80;;;;;;;20.84;29.70;102737.66;4214890;28;20421;-70
2022/03/15 00:21:47;;;;;;;2.78;0.82;;;;;;;20.83;29.88;102728.47;4197504;28;20463;-70
2022/03/15 00:23:50;;;;;;;1.20;0.98;;;;;;;20.83;29.93;102733.19;4216282;28;20093;-71
2022/03/15 00:25:53;;;;;;;0.93;0.75;;;;;;;20.83;29.78;102724.84;4214877;28;20102;-72
2022/03/15 00:27:58;;;;;;;1.67;0.70;;;;;;;20.81;29.60;102739.84;4215134;28;20089;-71
2022/03/15 00:30:00;;;;;;;1.27;0.90;;;;;;;20.78;29.94;102726.38;4215761;28;20070;-72
2022/03/15 00:32:01;;;;;;;1.40;0.80;;;;;;;20.80;29.43;102732.59;4215839;28;20035;-72
2022/03/15 00:34:03;;;;;;;1.63;1.00;;;;;;;20.82;29.72;102729.56;4214931;28;20032;-72
2022/03/15 00:36:05;;;;;;;1.52;1.15;;;;;;;20.80;29.75;102727.03;4196856;28;20041;-71
2022/03/15 00:38:07;;;;;;;3.65;1.02;;;;;;;20.80;29.53;102720.56;4210036;28;20094;-71
2022/03/15 00:40:09;;;;;;;1.70;1.02;;;;;;;20.77;29.56;102721.91;4214984;28;20039;-71
2022/03/15 00:42:11;;;;;;;2.08;1.00;;;;;;;20.81;29.88;102720.38;4214490;28;20101;-71
2022/03/15 00:44:13;;;;;;;1.63;0.80;;;;;;;20.81;29.82;102723.16;4214378;28;20040;-70
2022/03/15 00:46:14;;;;;;;1.30;1.10;;;;;;;20.80;29.93;102721.47;4215504;28;20032;-71
2022/03/15 00:48:16;;;;;;;1.00;0.90;;;;;;;20.82;29.48;102721.22;4196550;28;20040;-71
2022/03/15 00:50:18;;;;;;;2.10;1.05;;;;;;;20.71;29.97;102700.63;4213833;28;20102;-71
2022/03/15 00:52:19;;;;;;;1.80;0.95;;;;;;;20.79;29.86;102711.38;4214347;28;20418;-71
2022/03/15 00:54:21;;;;;;;1.15;0.73;;;;;;;20.73;29.70;102704.00;4214669;28;20027;-71
2022/03/15 00:56:22;;;;;;;1.30;0.90;;;;;;;20.79;29.67;102722.53;4214769;28;20101;-71
2022/03/15 00:58:24;;;;;;;2.65;0.88;;;;;;;20.80;29.95;102728.94;4214907;28;20383;-71
2022/03/15 01:00:27;;;;;;;1.85;1.00;;;;;;;20.74;29.73;102727.94;4214250;28;20043;-71
2022/03/15 01:02:29;;;;;;;1.88;0.93;;;;;;;20.76;29.60;102731.34;4213341;28;20048;-72
2022/03/15 01:04:33;;;;;;;3.13;1.23;;;;;;;20.79;29.69;102735.59;4215060;28;20024;-72
2022/03/15 01:06:38;;;;;;;1.53;0.90;;;;;;;20.81;29.65;102742.63;4215160;28;20024;-71
2022/03/15 01:08:39;;;;;;;;;;;;;;;20.79;29.79;102736.44;4215165;28;20476;-72
2022/03/15 01:10:41;;;;;;;1.98;1.02;;;;;;;20.86;29.83;102735.50;4214732;28;19974;-71
2022/03/15 01:12:42;;;;;;;1.10;0.80;;;;;;;20.85;29.62;102736.56;4214337;28;20039;-70
2022/03/15 01:14:44;;;;;;;1.30;1.02;;;;;;;20.83;29.71;102747.09;4197470;28;20086;-73
2022/03/15 01:16:50;;;;;;;2.00;1.00;;;;;;;20.77;29.89;102737.78;4214121;28;20109;-72
2022/03/15 01:18:52;;;;;;;1.05;0.95;;;;;;;20.79;29.83;102746.72;4214657;28;20039;-72
2022/03/15 01:20:56;;;;;;;1.73;1.10;;;;;;;20.80;29.88;102749.28;4213704;28;20036;-72
2022/03/15 01:22:57;;;;;;;1.55;0.70;;;;;;;20.79;29.92;102752.28;4214218;28;20117;-72
2022/03/15 01:24:59;;;;;;;1.58;0.80;;;;;;;20.78;30.03;102745.88;4216360;28;20052;-72
2022/03/15 01:27:00;;;;;;;1.50;0.80;;;;;;;20.74;29.86;102735.44;4214850;28;20040;-71
2022/03/15 01:29:02;;;;;;;1.00;0.80;;;;;;;20.78;29.64;102750.59;4219998;28;20024;-70
2022/03/15 01:31:03;;;;;;;1.75;0.90;;;;;;;20.76;29.90;102748.06;4219508;28;20032;-72
2022/03/15 01:33:05;;;;;;;1.35;0.85;;;;;;;20.74;29.65;102749.34;4207156;28;20484;-71
2022/03/15 01:35:06;;;;;;;1.27;1.05;;;;;;;20.73;29.78;102751.31;4202980;28;20070;-73
2022/03/15 01:37:11;;;;;;;2.05;0.90;;;;;;;20.78;29.69;102753.38;4202778;28;20040;-71
2022/03/15 01:39:12;;;;;;;0.80;0.80;;;;;;;20.70;29.80;102748.97;4203820;28;20086;-70
2022/03/15 01:41:14;;;;;;;1.13;0.80;;;;;;;20.78;29.91;102764.50;4203552;28;20086;-73
2022/03/15 01:43:15;;;;;;;1.58;0.90;;;;;;;20.73;29.71;102761.56;4202920;28;20549;-72
2022/03/15 01:45:16;;;;;;;1.95;0.90;;;;;;;20.71;29.78;102756.25;4203413;28;20028;-72
2022/03/15 01:47:21;;;;;;;1.17;0.80;;;;;;;20.78;29.95;102773.69;4203072;28;20044;-71
2022/03/15 01:49:25;;;;;;;2.22;0.70;;;;;;;20.78;30.25;102772.84;4202899;28;20098;-70
2022/03/15 01:51:27;;;;;;;1.33;0.77;;;;;;;20.79;30.07;102766.19;4203243;28;20054;-70
2022/03/15 01:53:31;;;;;;;2.80;0.80;;;;;;;20.75;29.84;102768.59;4185575;28;20040;-71
2022/03/15 01:55:32;;;;;;;1.70;1.10;;;;;;;20.70;29.91;102754.53;4203253;28;20029;-72
2022/03/15 01:57:33;;;;;;;0.95;0.90;;;;;;;20.60;29.69;102734.78;4203008;28;20472;-71
2022/03/15 01:59:39;;;;;;;1.00;0.90;;;;;;;20.76;30.14;102769.47;4203076;28;20491;-72
2022/03/15 02:01:42;;;;;;;2.30;0.88;;;;;;;20.71;30.08;102749.81;4205128;28;20081;-71
2022/03/15 02:03:43;;;;;;;2.10;1.05;;;;;;;20.74;30.15;102761.34;4203440;28;20056;-72
2022/03/15 02:05:48;;;;;;;0.98;0.88;;;;;;;20.73;29.82;102765.22;4202786;28;20089;-71
2022/03/15 02:07:49;;;;;;;2.30;1.30;;;;;;;20.75;29.95;102768.59;4203362;28;20427;-72
2022/03/15 02:09:51;;;;;;;2.40;0.90;;;;;;;20.74;29.94;102763.28;4203039;28;20443;-72
2022/03/15 02:11:53;;;;;;;1.08;0.77;;;;;;;20.72;29.81;102763.53;4203738;28;20090;-71
2022/03/15 02:13:54;;;;;;;1.42;1.13;;;;;;;20.75;29.93;102763.03;4203124;28;20063;-71
2022/03/15 02:15:58;;;;;;;3.42;1.10;;;;;;;20.74;29.71;102763.28;4204010;28;20091;-72
2022/03/15 02:18:00;;;;;;;0.88;0.80;;;;;;;20.73;30.01;102756.88;4203644;28;20062;-71
2022/03/15 02:20:08;;;;;;;1.05;0.70;;;;;;;20.72;30.07;102763.53;4205770;28;20079;-72
2022/03/15 02:22:10;;;;;;;1.80;0.95;;;;;;;20.71;29.59;102759.03;4204139;28;20041;-72
2022/03/15 02:24:11;;;;;;;1.08;0.90;;;;;;;20.73;29.75;102764.34;4203256;28;20041;-72
2022/03/15 02:26:16;;;;;;;2.47;1.08;;;;;;;20.73;29.75;102753.22;4202707;28;20086;-72
2022/03/15 02:28:17;;;;;;;1.13;0.90;;;;;;;20.72;30.05;102763.53;4203705;28;20036;-71
2022/03/15 02:30:21;;;;;;;1.13;1.02;;;;;;;20.72;30.09;102768.22;4184878;28;20282;-71
2022/03/15 02:32:25;;;;;;;0.82;0.82;;;;;;;20.71;30.01;102767.38;4202068;28;20438;-70
2022/03/15 02:34:27;;;;;;;1.30;1.10;;;;;;;20.73;29.79;102770.78;4203663;28;20040;-71
2022/03/15 02:36:28;;;;;;;1.10;0.95;;;;;;;20.66;29.84;102756.09;4203286;28;20041;-70
2022/03/15 02:38:30;;;;;;;2.22;0.90;;;;;;;20.73;30.13;102770.78;4202163;28;20048;-70
2022/03/15 02:40:31;;;;;;;1.50;0.90;;;;;;;20.73;29.93;102770.78;4200701;28;20029;-70
2022/03/15 02:42:33;;;;;;;1.40;1.00;;;;;;;20.72;29.76;102774.66;4200532;28;20028;-71
2022/03/15 02:44:34;;;;;;;2.78;1.10;;;;;;;20.71;29.89;102772.97;4200392;28;20090;-71
2022/03/15 02:46:39;;;;;;;2.35;1.08;;;;;;;20.67;29.73;102774.50;4200358;28;20426;-71
2022/03/15 02:48:40;;;;;;;1.45;0.77;;;;;;;20.72;29.91;102768.22;4200133;28;20098;-70
2022/03/15 02:50:42;;;;;;;1.38;1.00;;;;;;;20.68;29.79;102772.56;4199923;28;20044;-71
2022/03/15 02:52:43;;;;;;;1.27;0.80;;;;;;;20.71;30.14;102772.06;4200872;28;20066;-70
2022/03/15 02:54:44;;;;;;;1.33;1.13;;;;;;;20.69;30.16;102768.69;4199953;28;20094;-70
2022/03/15 02:56:47;;;;;;;1.60;0.90;;;;;;;20.67;29.85;102765.31;4199832;28;20041;-71
2022/03/15 02:58:48;;;;;;;1.33;1.10;;;;;;;20.67;29.79;102755.03;4200975;28;20105;-70
2022/03/15 03:00:50;;;;;;;1.30;0.85;;;;;;;20.67;29.84;102757.81;4201524;28;20037;-70
2022/03/15 03:02:55;;;;;;;1.65;0.95;;;;;;;20.68;29.70;102751.16;4199259;28;20041;-71
2022/03/15 03:04:59;;;;;;;;;;;;;;;20.69;30.07;102752.84;4211597;28;20061;-71
2022/03/15 03:07:01;;;;;;;1.65;1.02;;;;;;;20.76;29.68;102753.63;4216086;28;19920;-72
2022/03/15 03:09:06;;;;;;;1.42;1.23;;;;;;;20.75;29.93;102749.13;4215611;28;20086;-72
2022/03/15 03:11:07;;;;;;;1.23;0.80;;;;;;;20.74;29.77;102747.44;4200403;28;20075;-70
2022/03/15 03:13:09;;;;;;;1.73;1.10;;;;;;;20.73;29.79;102748.50;4200108;28;20446;-71
2022/03/15 03:15:11;;;;;;;0.98;0.88;;;;;;;20.72;29.59;102744.03;4199551;28;20093;-71
2022/03/15 03:17:13;;;;;;;1.60;0.90;;;;;;;20.51;29.95;102709.25;4200631;28;20044;-71
2022/03/15 03:19:14;;;;;;;1.63;0.95;;;;;;;20.61;29.86;102725.34;4201021;28;20029;-70
2022/03/15 03:21:16;;;;;;;2.05;0.98;;;;;;;20.68;29.98;102734.47;4199621;28;20044;-71
2022/03/15 03:23:17;;;;;;;1.10;0.90;;;;;;;20.65;29.65;102717.41;4200486;28;20094;-71
2022/03/15 03:25:19;;;;;;;1.17;0.80;;;;;;;20.68;30.09;102728.06;4200316;28;20099;-70
2022/03/15 03:27:20;;;;;;;1.42;0.93;;;;;;;20.64;29.89;102722.13;4199870;28;20488;-72
2022/03/15 03:29:22;;;;;;;1.35;1.10;;;;;;;20.66;29.79;102719.09;4204404;28;20036;-72
2022/03/15 03:31:23;;;;;;;1.73;1.10;;;;;;;20.67;29.99;102716.09;4215509;28;20048;-72
2022/03/15 03:33:25;;;;;;;1.70;0.90;;;;;;;20.68;29.75;102712.22;4198315;28;20078;-72
2022/03/15 03:35:27;;;;;;;1.95;1.00;;;;;;;20.68;29.85;102708.59;4206011;28;20036;-71
2022/03/15 03:37:29;;;;;;;1.38;1.00;;;;;;;20.65;29.97;102701.56;4199937;28;20033;-71
2022/03/15 03:39:31;;;;;;;1.30;1.00;;;;;;;20.68;29.86;102709.44;4202651;28;20407;-72
2022/03/15 03:41:33;;;;;;;2.97;1.00;;;;;;;20.68;29.78;102703.03;4201155;28;20106;-72
2022/03/15 03:43:35;;;;;;;1.63;1.00;;;;;;;20.68;29.96;102711.38;4203763;28;20106;-71
2022/03/15 03:45:37;;;;;;;2.78;1.00;;;;;;;20.66;30.10;102703.25;4203159;28;20036;-71
2022/03/15 03:47:38;;;;;;;1.40;0.90;;;;;;;20.67;29.92;102699.41;4202614;28;20040;-70
2022/03/15 03:49:40;;;;;;;1.33;1.23;;;;;;;20.66;30.03;102694.91;4199881;28;20032;-71
2022/03/15 03:51:43;;;;;;;1.70;0.93;;;;;;;20.63;30.01;102700.94;4199052;28;20113;-71
2022/03/15 03:53:44;;;;;;;1.02;0.90;;;;;;;20.67;29.94;102704.13;4201835;28;20051;-70
2022/03/15 03:55:45;;;;;;;1.05;0.95;;;;;;;20.63;29.86;102692.59;4201125;28;20445;-71
2022/03/15 03:57:50;;;;;;;2.00;1.20;;;;;;;20.41;29.90;102653.31;4199966;28;20533;-71
2022/03/15 03:59:54;;;;;;;1.50;1.10;;;;;;;20.61;29.87;102682.78;4202086;28;20074;-73
2022/03/15 04:01:56;;;;;;;1.33;0.80;;;;;;;20.65;30.19;102690.41;4199055;28;20082;-71
2022/03/15 04:04:05;;;;;;;1.42;1.00;;;;;;;20.64;29.87;102688.72;4200009;28;20040;-71
2022/03/15 04:06:08;;;;;;;2.40;1.00;;;;;;;20.62;30.14;102682.56;4185108;28;20049;-72
2022/03/15 04:08:12;;;;;;;3.45;1.10;;;;;;;20.65;30.19;102684.84;4182694;28;20423;-72
2022/03/15 04:10:15;;;;;;;1.63;0.90;;;;;;;20.58;29.76;102670.22;4182159;28;20037;-70
2022/03/15 04:12:20;;;;;;;1.33;0.90;;;;;;;20.59;30.04;102669.13;4164943;28;20049;-71
2022/03/15 04:14:22;;;;;;;1.65;1.10;;;;;;;20.65;29.89;102679.28;4183317;28;20088;-71
2022/03/15 04:16:23;;;;;;;1.65;1.00;;;;;;;20.61;29.87;102672.50;4183048;28;20040;-72
2022/03/15 04:18:25;;;;;;;1.60;0.98;;;;;;;20.63;30.23;102667.56;4182631;28;20098;-72
2022/03/15 04:20:26;;;;;;;1.83;1.10;;;;;;;20.61;29.89;102664.16;4181926;28;20052;-72
2022/03/15 04:22:28;;;;;;;1.05;0.80;;;;;;;20.64;29.75;102669.25;4181214;28;20075;-72
2022/03/15 04:24:32;;;;;;;1.00;0.90;;;;;;;20.62;29.84;102668.66;4182566;28;20047;-71
2022/03/15 04:26:34;;;;;;;1.92;0.90;;;;;;;20.63;30.13;102664.78;4181966;28;20103;-71
2022/03/15 04:28:35;;;;;;;0.82;0.82;;;;;;;20.59;29.82;102663.56;4181383;28;20037;-72
2022/03/15 04:30:37;;;;;;;1.00;0.90;;;;;;;20.64;30.06;102666.47;4181303;28;20036;-71
2022/03/15 04:32:38;;;;;;;1.90;1.10;;;;;;;20.60;30.20;102664.41;4188254;28;20036;-71
2022/03/15 04:34:40;;;;;;;0.90;0.80;;;;;;;20.64;30.06;102660.91;4197126;28;20041;-71
2022/03/15 04:36:42;;;;;;;0.98;0.82;;;;;;;20.64;29.78;102657.28;4197874;28;20093;-72
2022/03/15 04:38:43;;;;;;;2.00;0.90;;;;;;;20.64;30.26;102658.13;4197775;28;20097;-71
2022/03/15 04:40:44;;;;;;;1.92;0.90;;;;;;;20.63;30.21;102661.16;4198221;28;20067;-71
2022/03/15 04:42:48;;;;;;;0.85;0.80;;;;;;;20.63;29.82;102655.59;4198862;28;20110;-71
2022/03/15 04:44:49;;;;;;;2.17;1.02;;;;;;;20.64;30.01;102660.06;4198174;28;20036;-72
2022/03/15 04:46:51;;;;;;;1.88;1.00;;;;;;;20.62;30.18;102651.97;4199319;28;20040;-72
2022/03/15 04:48:56;;;;;;;1.48;0.90;;;;;;;20.62;29.92;102657.53;4199143;28;20438;-71
2022/03/15 04:50:57;;;;;;;1.08;0.93;;;;;;;20.63;29.74;102655.59;4198190;28;20033;-72
2022/03/15 04:52:59;;;;;;;1.23;0.80;;;;;;;20.58;29.78;102636.84;4198178;28;20032;-70
2022/03/15 04:55:02;;;;;;;1.48;1.02;;;;;;;20.61;30.00;102644.69;4199005;28;20045;-71
2022/03/15 04:57:04;;;;;;;1.10;0.93;;;;;;;20.61;30.13;102644.69;4198627;28;20447;-72
2022/03/15 04:59:08;;;;;;;1.23;0.85;;;;;;;20.59;30.25;102641.31;4198631;28;20469;-71
2022/03/15 05:01:10;;;;;;;1.83;1.20;;;;;;;20.61;30.04;102638.28;4198620;28;20419;-71
2022/03/15 05:03:16;;;;;;;1.33;0.80;;;;;;;20.59;29.99;102632.13;4196591;28;20040;-71
2022/03/15 05:05:18;;;;;;;2.08;0.90;;;;;;;20.62;30.00;102634.41;4198230;28;20036;-71
2022/03/15 05:07:19;;;;;;;1.30;0.95;;;;;;;20.62;29.88;102637.19;4198769;28;20365;-72
2022/03/15 05:09:20;;;;;;;1.25;0.82;;;;;;;20.61;29.91;102632.72;4198095;28;20040;-72
2022/03/15 05:11:22;;;;;;;1.85;0.90;;;;;;;20.61;29.74;102638.28;4197712;28;20033;-71
2022/03/15 05:13:25;;;;;;;1.27;0.95;;;;;;;20.56;30.14;102636.22;4198324;28;20079;-71
2022/03/15 05:15:26;;;;;;;1.15;0.98;;;;;;;20.60;30.25;102640.22;4198462;28;20062;-71
2022/03/15 05:17:28;;;;;;;1.02;0.90;;;;;;;20.60;29.89;102636.59;4197559;28;20105;-72
2022/03/15 05:19:30;;;;;;;1.90;1.08;;;;;;;20.57;30.23;102635.13;4198439;28;20040;-72
2022/03/15 05:21:32;;;;;;;1.58;0.85;;;;;;;20.56;30.21;102630.66;4198040;28;20478;-71
2022/03/15 05:23:34;;;;;;;2.00;1.13;;;;;;;20.59;30.20;102634.91;4197515;28;20048;-71
2022/03/15 05:25:35;;;;;;;1.60;1.00;;;;;;;20.58;29.97;102634.06;4198440;28;20040;-71
2022/03/15 05:27:36;;;;;;;1.42;1.00;;;;;;;20.44;30.16;102608.38;4198525;28;20181;-71
2022/03/15 05:29:38;;;;;;;0.93;0.82;;;;;;;20.59;29.87;102634.91;4198617;28;20036;-72
2022/03/15 05:31:39;;;;;;;1.17;0.82;;;;;;;20.60;30.19;102629.09;4203772;28;20116;-71
2022/03/15 05:33:41;;;;;;;1.58;1.00;;;;;;;20.58;30.01;102628.50;4213927;28;20105;-71
2022/03/15 05:35:42;;;;;;;2.67;1.30;;;;;;;20.60;29.99;102631.03;4208738;28;20101;-70
2022/03/15 05:37:46;;;;;;;1.10;0.90;;;;;;;20.49;29.81;102607.69;4206792;28;20086;-70
2022/03/15 05:39:50;;;;;;;1.83;1.10;;;;;;;20.58;29.81;102625.72;4197350;28;20094;-72
2022/03/15 05:41:52;;;;;;;2.38;0.95;;;;;;;20.58;29.80;102625.72;4197065;28;20041;-72
2022/03/15 05:43:56;;;;;;;1.33;1.02;;;;;;;20.56;29.76;102625.94;4198464;28;20102;-72
2022/03/15 05:45:58;;;;;;;1.58;0.90;;;;;;;20.59;30.30;102627.41;4198272;28;20041;-72
2022/03/15 05:47:59;;;;;;;1.92;1.10;;;;;;;20.58;30.00;102622.94;4197997;28;20099;-71
2022/03/15 05:50:10;;;;;;;1.25;0.90;;;;;;;20.58;30.03;102617.38;4198037;28;20036;-71
2022/03/15 05:52:11;;;;;;;1.58;1.00;;;;;;;20.59;29.90;102618.22;4198153;28;20028;-72
2022/03/15 05:54:12;;;;;;;1.08;0.90;;;;;;;20.59;29.78;102619.06;4197830;28;20036;-71
2022/03/15 05:56:13;;;;;;;1.75;1.00;;;;;;;20.58;30.04;102608.19;4197755;28;20189;-71
2022/03/15 05:58:15;;;;;;;1.15;0.90;;;;;;;20.47;30.03;102595.91;4197642;28;20094;-71
2022/03/15 06:00:17;;;;;;;1.60;1.00;;;;;;;20.53;29.95;102603.34;4197931;28;20066;-71
2022/03/15 06:02:18;;;;;;;1.63;0.88;;;;;;;20.58;29.81;102605.41;4197267;28;20102;-71
2022/03/15 06:04:21;;;;;;;1.15;1.00;;;;;;;20.55;29.78;102603.94;4197380;28;20310;-72
2022/03/15 06:06:24;;;;;;;1.10;0.82;;;;;;;20.53;30.02;102608.91;4197157;28;20053;-70
2022/03/15 06:08:25;;;;;;;2.08;1.23;;;;;;;20.57;29.91;102610.09;4197148;28;20053;-71
2022/03/15 06:10:30;;;;;;;1.42;0.93;;;;;;;20.56;30.19;102608.41;4198024;28;20090;-71
2022/03/15 06:12:31;;;;;;;0.93;0.93;;;;;;;20.54;29.99;102596.69;4196910;28;20097;-71
2022/03/15 06:14:35;;;;;;;1.63;1.10;;;;;;;20.53;30.00;102592.22;4198757;28;20040;-72
2022/03/15 06:16:36;;;;;;;2.03;1.00;;;;;;;20.56;30.15;102597.28;4185650;28;20542;-70
2022/03/15 06:18:43;;;;;;;2.03;1.00;;;;;;;20.54;29.90;102594.75;4183504;28;20041;-71
2022/03/15 06:20:45;;;;;;;2.25;1.20;;;;;;;20.47;30.21;102582.00;4201109;28;20041;-72
2022/03/15 06:22:50;;;;;;;3.63;0.88;;;;;;;20.55;30.21;102595.59;4200818;28;20106;-72
2022/03/15 06:24:51;;;;;;;1.23;0.90;;;;;;;20.47;29.79;102580.09;4200455;28;20049;-72
2022/03/15 06:26:53;;;;;;;2.67;1.15;;;;;;;20.41;29.82;102560.72;4183791;28;20049;-72
2022/03/15 06:28:55;;;;;;;1.40;0.90;;;;;;;20.55;29.96;102590.03;4186232;28;20041;-72
2022/03/15 06:30:57;;;;;;;1.52;0.73;;;;;;;20.55;30.24;102584.47;4202149;28;20028;-72
2022/03/15 06:32:59;;;;;;;0.75;0.73;;;;;;;20.54;30.17;102577.22;4192933;28;20076;-72
2022/03/15 06:35:05;;;;;;;1.35;1.00;;;;;;;20.38;29.99;102550.06;4210257;28;20090;-71
2022/03/15 06:37:13;;;;;;;0.80;0.80;;;;;;;20.50;30.04;102576.00;4216777;28;20109;-71
2022/03/15 06:39:14;;;;;;;1.02;0.90;;;;;;;20.47;30.08;102571.75;4215226;28;20035;-72
2022/03/15 06:41:16;;;;;;;0.93;0.80;;;;;;;20.50;30.11;102567.66;4216676;28;20089;-72
2022/03/15 06:43:17;;;;;;;1.43;1.00;;;;;;;20.52;30.00;102568.25;4210937;28;20041;-72
2022/03/15 06:45:22;;;;;;;1.50;0.93;;;;;;;20.53;30.14;102565.25;4209528;28;20036;-71
2022/03/15 06:47:26;;;;;;;1.10;1.00;;;;;;;20.48;30.18;102558.69;4200582;28;20098;-72
2022/03/15 06:49:28;;;;;;;1.08;0.85;;;;;;;20.52;30.13;102563.53;4203553;28;20544;-72
2022/03/15 06:51:32;;;;;;;2.40;1.00;;;;;;;20.49;30.01;102549.28;4216772;28;20457;-72
2022/03/15 06:53:33;;;;;;;1.60;0.93;;;;;;;20.53;29.84;102547.72;4205254;28;20044;-72
2022/03/15 06:55:35;;;;;;;1.38;0.85;;;;;;;20.49;29.77;102552.06;4200079;28;20041;-71
2022/03/15 06:57:37;;;;;;;1.30;0.88;;;;;;;20.52;30.21;102548.78;4210543;28;20449;-72
2022/03/15 06:59:38;;;;;;;1.48;0.80;;;;;;;20.53;29.99;102547.72;4216579;28;20040;-71
2022/03/15 07:01:39;;;;;;;1.10;1.00;;;;;;;20.52;30.00;102549.63;4187284;28;20450;-72
2022/03/15 07:03:41;;;;;;;1.17;1.08;;;;;;;20.52;30.13;102543.22;4199504;28;20557;-71
2022/03/15 07:05:44;;;;;;;1.05;0.90;;;;;;;20.52;29.91;102546.00;4200813;28;20036;-71
2022/03/15 07:07:46;;;;;;;1.20;1.00;;;;;;;20.51;30.08;102547.09;4211733;28;20564;-71
2022/03/15 07:09:47;;;;;;;0.80;0.80;;;;;;;20.47;29.86;102543.06;4211703;28;20062;-72
2022/03/15 07:11:48;;;;;;;1.73;0.90;;;;;;;20.48;30.30;102533.66;4200160;28;20480;-72
2022/03/15 07:13:50;;;;;;;0.80;0.80;;;;;;;20.50;30.14;102532.34;4198746;28;20101;-70
2022/03/15 07:15:54;;;;;;;1.05;0.98;;;;;;;20.49;30.07;102524.25;4215853;28;20047;-70
2022/03/15 07:17:57;;;;;;;1.35;0.90;;;;;;;20.49;30.08;102529.81;4214589;28;20040;-71
2022/03/15 07:19:59;;;;;;;1.13;0.82;;;;;;;20.50;29.94;102526.78;4199998;28;20033;-72
2022/03/15 07:22:00;;;;;;;1.25;0.88;;;;;;;20.44;29.92;102508.25;4199647;28;20426;-73
2022/03/15 07:24:03;;;;;;;1.42;1.10;;;;;;;20.47;30.12;102515.25;4206821;28;20484;-71
2022/03/15 07:26:05;;;;;;;1.58;0.95;;;;;;;20.44;29.83;102511.03;4218794;28;20077;-71
2022/03/15 07:28:06;;;;;;;1.83;1.10;;;;;;;20.49;29.95;102513.13;4220944;28;20039;-71
2022/03/15 07:30:08;;;;;;;1.30;0.88;;;;;;;20.47;29.93;102509.69;4205023;28;20372;-71
2022/03/15 07:32:10;;;;;;;1.00;0.70;;;;;;;20.47;30.02;102504.13;4220820;28;20112;-72
2022/03/15 07:34:12;;;;;;;1.63;0.90;;;;;;;20.44;30.29;102499.06;4211254;28;20553;-72
2022/03/15 07:36:14;;;;;;;0.98;0.90;;;;;;;20.40;30.00;102481.19;4218785;28;20197;-72
2022/03/15 07:38:17;;;;;;;1.08;0.90;;;;;;;20.48;30.05;102503.94;4220742;28;20040;-71
2022/03/15 07:40:19;;;;;;;1.27;0.85;;;;;;;20.44;29.97;102487.94;4212118;28;20024;-72
2022/03/15 07:42:22;;;;;;;1.30;0.95;;;;;;;20.43;30.30;102495.41;4200094;28;20525;-72
2022/03/15 07:44:29;;;;;;;1.52;0.90;;;;;;;20.47;29.89;102487.44;4199466;28;20041;-72
2022/03/15 07:46:34;;;;;;;0.88;0.82;;;;;;;20.48;30.07;102494.72;4201044;28;20040;-72
2022/03/15 07:48:36;;;;;;;1.42;0.90;;;;;;;20.47;29.94;102490.22;4204399;28;20063;-73
2022/03/15 07:50:38;;;;;;;1.42;1.00;;;;;;;20.47;30.09;102487.44;4199956;28;20102;-72
2022/03/15 07:52:40;;;;;;;0.90;0.85;;;;;;;20.48;29.90;102491.94;4204206;28;20472;-72
2022/03/15 07:54:46;;;;;;;1.40;1.00;;;;;;;20.47;30.03;102490.22;4201117;28;20074;-71
2022/03/15 07:56:47;;;;;;;0.82;0.70;;;;;;;20.44;30.12;102490.72;4196354;28;20041;-70
2022/03/15 07:58:51;;;;;;;1.65;0.80;;;;;;;20.41;29.83;102478.16;4200092;28;20036;-71
2022/03/15 08:00:56;;;;;;;1.10;1.00;;;;;;;20.47;30.08;102490.22;4200328;28;20048;-70
2022/03/15 08:02:58;;;;;;;1.23;0.90;;;;;;;20.48;30.04;102492.81;4199456;28;20411;-71
2022/03/15 08:04:59;;;;;;;1.20;1.00;;;;;;;20.47;30.08;102479.09;4200582;28;20078;-72
2022/03/15 08:07:01;;;;;;;0.90;0.70;;;;;;;20.47;29.89;102476.31;4200438;28;20041;-73
2022/03/15 08:09:03;;;;;;;0.80;0.80;;;;;;;20.36;29.93;102460.50;4199989;28;20044;-71
2022/03/15 08:11:07;;;;;;;1.33;1.02;;;;;;;20.44;29.95;102477.66;4200729;28;20070;-72
2022/03/15 08:13:08;;;;;;;1.20;0.82;;;;;;;20.44;30.13;102472.13;4200442;28;20050;-72
2022/03/15 08:15:11;;;;;;;1.00;0.85;;;;;;;20.45;29.81;102478.50;4199334;28;20049;-71
2022/03/15 08:17:12;;;;;;;0.75;0.75;;;;;;;20.37;30.02;102467.75;4200620;28;20045;-72
2022/03/15 08:19:18;;;;;;;1.17;0.88;;;;;;;20.42;29.81;102476.19;4199685;28;20040;-71
2022/03/15 08:21:22;;;;;;;1.70;1.30;;;;;;;20.45;30.25;102478.50;4200135;28;20044;-71
2022/03/15 08:23:28;;;;;;;1.40;0.93;;;;;;;20.45;30.34;102479.34;4204895;28;20040;-70
2022/03/15 08:25:29;;;;;;;0.95;0.80;;;;;;;20.44;30.28;102474.88;4200166;28;20044;-70
2022/03/15 08:27:32;;;;;;;1.15;1.05;;;;;;;20.44;30.10;102476.81;4198819;28;20049;-71
2022/03/15 08:29:33;;;;;;;1.23;1.00;;;;;;;20.45;30.13;102479.34;4198497;28;20480;-71
2022/03/15 08:31:35;;;;;;;2.22;1.10;;;;;;;20.44;29.74;102476.81;4198216;28;20082;-72
2022/03/15 08:33:39;;;;;;;1.23;1.00;;;;;;;20.43;30.19;102477.88;4198239;28;20045;-72
2022/03/15 08:35:40;;;;;;;0.93;0.82;;;;;;;20.43;30.05;102475.09;4198044;28;20381;-72
2022/03/15 08:37:50;;;;;;;1.10;1.00;;;;;;;20.42;29.82;102481.75;4198111;28;20485;-72
2022/03/15 08:39:51;;;;;;;1.42;1.23;;;;;;;20.42;30.20;102474.28;4198627;28;20050;-71
2022/03/15 08:41:53;;;;;;;1.52;1.00;;;;;;;20.41;29.96;102477.31;4208410;28;20048;-71
2022/03/15 08:43:57;;;;;;;1.73;1.30;;;;;;;20.38;29.92;102473.06;4196653;28;20040;-72
2022/03/15 08:45:59;;;;;;;0.80;0.80;;;;;;;20.41;30.19;102474.53;4210181;28;20418;-72
2022/03/15 08:48:00;;;;;;;1.48;1.20;;;;;;;20.41;30.11;102485.63;4214016;28;20090;-71
2022/03/15 08:50:06;;;;;;;1.55;1.00;;;;;;;20.41;29.95;102480.06;4195288;28;20434;-70
2022/03/15 08:52:08;;;;;;;1.92;1.20;;;;;;;20.36;29.79;102471.63;4214647;28;20537;-71
2022/03/15 08:54:09;;;;;;;2.05;1.00;;;;;;;20.41;30.27;102483.69;4214961;28;20491;-70
2022/03/15 08:56:13;;;;;;;1.13;0.90;;;;;;;20.37;29.94;102490.81;4203971;28;20029;-71
2022/03/15 08:58:15;;;;;;;1.83;1.15;;;;;;;20.40;29.83;102486.72;4198637;28;20033;-71
2022/03/15 09:00:16;;;;;;;1.45;0.82;;;;;;;20.38;30.01;102489.72;4202230;28;20078;-71
2022/03/15 09:02:18;;;;;;;2.13;1.50;;;;;;;20.39;30.19;102485.88;4198881;28;20468;-71
2022/03/15 09:04:20;;;;;;;1.10;1.00;;;;;;;20.40;30.31;102492.28;4198950;28;20032;-70
2022/03/15 09:06:21;;;;;;;1.02;0.90;;;;;;;20.38;29.86;102495.28;4198364;28;20063;-72
2022/03/15 09:08:22;;;;;;;1.98;1.00;;;;;;;20.35;30.22;102492.16;4198041;28;20149;-71
2022/03/15 09:10:25;;;;;;;1.17;1.05;;;;;;;20.39;30.27;102496.13;4202546;28;20503;-71
2022/03/15 09:12:26;;;;;;;1.30;0.82;;;;;;;20.39;30.29;102501.69;4198524;28;20460;-71
2022/03/15 09:14:31;;;;;;;1.60;1.25;;;;;;;20.37;29.79;102504.72;4198769;28;20040;-72
2022/03/15 09:16:33;;;;;;;1.20;1.00;;;;;;;20.37;29.83;102499.16;4197779;28;20062;-72
2022/03/15 09:18:34;;;;;;;2.17;1.20;;;;;;;20.37;30.15;102498.31;4198531;28;20586;-71
2022/03/15 09:20:38;;;;;;;1.58;1.30;;;;;;;20.37;29.84;102498.31;4197870;28;20365;-72
2022/03/15 09:22:40;;;;;;;1.20;1.10;;;;;;;20.36;30.21;102502.19;4198506;28;20066;-72
2022/03/15 09:24:41;;;;;;;1.25;0.90;;;;;;;20.36;29.77;102493.84;4198575;28;20044;-70
2022/03/15 09:26:46;;;;;;;1.13;1.00;;;;;;;20.38;30.28;102498.06;4198766;28;20040;-71
2022/03/15 09:28:50;;;;;;;1.60;1.20;;;;;;;20.37;29.77;102488.03;4198226;28;20109;-71
2022/03/15 09:30:52;;;;;;;1.80;1.35;;;;;;;20.37;29.85;102498.31;4199346;28;20036;-71